createdAt,value
2018-03-26T00:00:28.237Z,2.43
2018-03-26T00:01:28.145Z,2.41
2018-03-26T00:02:28.044Z,2.37
2018-03-26T00:03:27.983Z,2.44
2018-03-26T00:04:27.950Z,2.48
2018-03-26T00:05:27.758Z,2.58
2018-03-26T00:06:27.660Z,2.56
2018-03-26T00:07:27.568Z,2.55
2018-03-26T00:08:27.510Z,2.48
2018-03-26T00:09:27.382Z,2.40
2018-03-26T00:10:27.279Z,2.44
2018-03-26T00:11:27.276Z,2.41
2018-03-26T00:12:27.091Z,2.30
2018-03-26T00:13:27.032Z,2.36
2018-03-26T00:14:26.899Z,2.29
2018-03-26T00:15:26.802Z,2.27
2018-03-26T00:16:26.705Z,2.27
2018-03-26T00:17:26.610Z,2.26
2018-03-26T00:18:26.644Z,2.30
2018-03-26T00:19:26.415Z,2.44
2018-03-26T00:20:26.374Z,2.38
2018-03-26T00:21:26.227Z,2.47
2018-03-26T00:22:26.130Z,2.50
2018-03-26T00:23:26.066Z,2.50
2018-03-26T00:24:25.937Z,2.71
2018-03-26T00:25:25.938Z,2.77
2018-03-26T00:26:25.745Z,2.73
2018-03-26T00:27:25.650Z,2.63
2018-03-26T00:28:25.586Z,2.51
2018-03-26T00:29:25.497Z,2.53
2018-03-26T00:30:25.361Z,2.51
2018-03-26T00:31:25.269Z,2.48
2018-03-26T00:32:25.262Z,2.45
2018-03-26T00:33:25.078Z,2.56
2018-03-26T00:34:25.014Z,2.50
2018-03-26T00:35:24.887Z,2.43
2018-03-26T00:36:24.786Z,2.45
2018-03-26T00:37:24.691Z,2.38
2018-03-26T00:38:24.608Z,2.45
2018-03-26T00:39:24.535Z,2.44
2018-03-26T00:40:24.409Z,2.41
2018-03-26T00:41:24.308Z,2.41
2018-03-26T00:42:24.213Z,2.44
2018-03-26T00:43:24.127Z,2.47
2018-03-26T00:44:24.051Z,2.47
2018-03-26T00:45:23.924Z,2.43
2018-03-26T00:46:23.829Z,2.51
2018-03-26T00:47:23.731Z,2.50
2018-03-26T00:48:23.636Z,2.45
2018-03-26T00:49:23.574Z,2.50
2018-03-26T00:50:23.444Z,2.55
2018-03-26T00:51:23.347Z,2.56
2018-03-26T00:52:23.254Z,2.45
2018-03-26T00:53:23.158Z,2.47
2018-03-26T00:54:23.096Z,2.43
2018-03-26T00:55:22.965Z,2.43
2018-03-26T00:56:22.876Z,2.40
2018-03-26T00:57:22.772Z,2.29
2018-03-26T00:58:22.678Z,2.37
2018-03-26T00:59:22.614Z,2.27
2018-03-26T01:00:22.488Z,2.36
2018-03-26T01:01:22.393Z,2.29
2018-03-26T01:02:22.295Z,2.44
2018-03-26T01:03:22.200Z,2.43
2018-03-26T01:04:22.146Z,2.26
2018-03-26T01:05:22.016Z,2.38
2018-03-26T01:06:21.912Z,2.29
2018-03-26T01:07:21.818Z,2.23
2018-03-26T01:08:21.723Z,2.27
2018-03-26T01:09:21.659Z,2.37
2018-03-26T01:10:21.530Z,2.38
2018-03-26T01:11:21.437Z,2.33
2018-03-26T01:12:21.339Z,2.38
2018-03-26T01:13:21.246Z,2.30
2018-03-26T01:14:21.178Z,2.33
2018-03-26T01:15:21.051Z,2.30
2018-03-26T01:16:20.959Z,2.33
2018-03-26T01:17:20.859Z,2.26
2018-03-26T01:18:20.762Z,2.26
2018-03-26T01:19:20.702Z,2.30
2018-03-26T01:20:20.571Z,2.29
2018-03-26T01:21:20.476Z,2.18
2018-03-26T01:22:20.379Z,2.19
2018-03-26T01:23:20.289Z,2.18
2018-03-26T01:24:20.221Z,2.11
2018-03-26T01:25:20.098Z,2.22
2018-03-26T01:26:19.998Z,2.25
2018-03-26T01:27:19.900Z,2.25
2018-03-26T01:28:19.814Z,2.20
2018-03-26T01:29:19.713Z,2.26
2018-03-26T01:30:19.666Z,2.29
2018-03-26T01:31:19.518Z,2.25
2018-03-26T01:32:19.423Z,2.29
2018-03-26T01:33:19.325Z,2.36
2018-03-26T01:34:19.230Z,2.29
2018-03-26T01:35:19.165Z,2.36
2018-03-26T01:36:19.045Z,2.36
2018-03-26T01:37:18.941Z,2.36
2018-03-26T01:38:18.847Z,2.26
2018-03-26T01:39:18.770Z,2.29
2018-03-26T01:40:18.687Z,2.27
2018-03-26T01:41:18.561Z,2.19
2018-03-26T01:42:18.463Z,2.15
2018-03-26T01:43:18.369Z,2.18
2018-03-26T01:44:18.277Z,2.18
2018-03-26T01:45:18.206Z,2.18
2018-03-26T01:46:18.083Z,2.15
2018-03-26T01:47:17.980Z,2.11
2018-03-26T01:48:17.884Z,2.25
2018-03-26T01:49:17.790Z,2.32
2018-03-26T01:50:17.728Z,2.30
2018-03-26T01:51:17.598Z,2.29
2018-03-26T01:52:17.505Z,2.27
2018-03-26T01:53:17.406Z,2.15
2018-03-26T01:54:17.313Z,2.26
2018-03-26T01:55:17.252Z,2.15
2018-03-26T01:56:17.118Z,2.26
2018-03-26T01:57:17.025Z,2.29
2018-03-26T01:58:16.927Z,2.26
2018-03-26T01:59:16.830Z,2.23
2018-03-26T02:00:16.769Z,2.04
2018-03-26T02:01:16.642Z,2.07
2018-03-26T02:02:16.541Z,2.04
2018-03-26T02:03:16.446Z,2.07
2018-03-26T02:04:16.351Z,2.04
2018-03-26T02:05:16.290Z,2.04
2018-03-26T02:06:16.157Z,2.14
2018-03-26T02:07:16.064Z,2.15
2018-03-26T02:08:15.966Z,2.20
2018-03-26T02:09:15.872Z,2.22
2018-03-26T02:10:15.806Z,2.18
2018-03-26T02:11:15.681Z,2.30
2018-03-26T02:12:15.583Z,2.30
2018-03-26T02:13:15.487Z,2.38
2018-03-26T02:14:15.391Z,2.27
2018-03-26T02:15:15.330Z,2.29
2018-03-26T02:16:15.200Z,2.27
2018-03-26T02:17:15.106Z,2.32
2018-03-26T02:18:15.008Z,2.30
2018-03-26T02:19:14.912Z,2.26
2018-03-26T02:20:14.850Z,2.32
2018-03-26T02:21:14.721Z,2.26
2018-03-26T02:22:14.620Z,2.27
2018-03-26T02:23:14.527Z,2.29
2018-03-26T02:24:14.432Z,2.30
2018-03-26T02:25:14.368Z,2.14
2018-03-26T02:26:14.243Z,2.19
2018-03-26T02:27:14.145Z,2.18
2018-03-26T02:28:14.050Z,2.18
2018-03-26T02:29:13.954Z,2.20
2018-03-26T02:30:13.900Z,2.18
2018-03-26T02:31:13.855Z,2.20
2018-03-26T02:32:13.665Z,2.18
2018-03-26T02:33:13.567Z,2.14
2018-03-26T02:34:14.304Z,2.19
2018-03-26T02:35:13.407Z,2.07
2018-03-26T02:36:13.286Z,2.07
2018-03-26T02:37:13.187Z,2.02
2018-03-26T02:38:13.185Z,2.02
2018-03-26T02:39:12.994Z,2.11
2018-03-26T02:40:12.905Z,2.05
2018-03-26T02:41:12.834Z,2.05
2018-03-26T02:42:12.704Z,2.09
2018-03-26T02:43:12.606Z,2.09
2018-03-26T02:44:12.516Z,2.01
2018-03-26T02:45:12.513Z,2.09
2018-03-26T02:46:12.355Z,2.02
2018-03-26T02:47:12.231Z,2.02
2018-03-26T02:48:12.128Z,2.07
2018-03-26T02:49:12.034Z,2.02
2018-03-26T02:50:11.945Z,2.11
2018-03-26T02:51:11.873Z,2.01
2018-03-26T02:52:11.848Z,2.09
2018-03-26T02:53:11.647Z,2.20
2018-03-26T02:54:11.551Z,2.08
2018-03-26T02:55:11.464Z,2.08
2018-03-26T02:56:11.395Z,2.18
2018-03-26T02:57:11.263Z,2.18
2018-03-26T02:58:11.222Z,2.19
2018-03-26T02:59:11.210Z,2.19
2018-03-26T03:00:10.978Z,2.18
2018-03-26T03:01:10.912Z,2.19
2018-03-26T03:02:10.785Z,2.30
2018-03-26T03:03:10.688Z,2.27
2018-03-26T03:04:10.601Z,2.29
2018-03-26T03:05:10.495Z,2.37
2018-03-26T03:06:10.529Z,2.37
2018-03-26T03:07:10.307Z,2.37
2018-03-26T03:08:10.209Z,2.27
2018-03-26T03:09:10.113Z,2.27
2018-03-26T03:10:10.014Z,2.30
2018-03-26T03:11:09.955Z,2.23
2018-03-26T03:12:09.826Z,2.27
2018-03-26T03:13:09.824Z,2.32
2018-03-26T03:14:09.633Z,2.32
2018-03-26T03:15:09.537Z,2.25
2018-03-26T03:16:09.475Z,2.27
2018-03-26T03:17:09.346Z,2.27
2018-03-26T03:18:09.249Z,2.19
2018-03-26T03:19:09.153Z,2.14
2018-03-26T03:20:09.175Z,2.22
2018-03-26T03:21:08.997Z,2.25
2018-03-26T03:22:08.867Z,2.26
2018-03-26T03:23:08.770Z,2.26
2018-03-26T03:24:08.674Z,2.25
2018-03-26T03:25:08.579Z,2.33
2018-03-26T03:26:08.515Z,2.32
2018-03-26T03:27:08.479Z,2.36
2018-03-26T03:28:08.291Z,2.38
2018-03-26T03:29:08.193Z,2.43
2018-03-26T03:30:08.106Z,2.30
2018-03-26T03:31:08.036Z,2.33
2018-03-26T03:32:07.961Z,2.29
2018-03-26T03:33:07.813Z,2.32
2018-03-26T03:34:07.718Z,2.27
2018-03-26T03:35:07.621Z,2.38
2018-03-26T03:36:07.557Z,2.37
2018-03-26T03:37:07.427Z,2.27
2018-03-26T03:38:07.333Z,2.25
2018-03-26T03:39:07.234Z,2.30
2018-03-26T03:40:07.144Z,2.27
2018-03-26T03:41:07.077Z,2.29
2018-03-26T03:42:06.950Z,2.20
2018-03-26T03:43:06.853Z,2.27
2018-03-26T03:44:06.759Z,2.27
2018-03-26T03:45:06.660Z,2.22
2018-03-26T03:46:06.568Z,2.29
2018-03-26T03:47:06.508Z,2.27
2018-03-26T03:48:06.485Z,2.25
2018-03-26T03:49:06.281Z,2.30
2018-03-26T03:50:06.182Z,2.27
2018-03-26T03:51:06.085Z,2.14
2018-03-26T03:52:06.021Z,2.01
2018-03-26T03:53:05.893Z,2.08
2018-03-26T03:54:05.799Z,2.09
2018-03-26T03:55:05.702Z,2.07
2018-03-26T03:56:05.610Z,2.07
2018-03-26T03:57:05.546Z,2.04
2018-03-26T03:58:05.430Z,2.12
2018-03-26T03:59:05.322Z,2.12
2018-03-26T04:00:05.222Z,2.25
2018-03-26T04:01:05.127Z,2.26
2018-03-26T04:02:05.066Z,2.29
2018-03-26T04:03:04.934Z,2.20
2018-03-26T04:04:04.838Z,2.19
2018-03-26T04:05:04.743Z,2.15
2018-03-26T04:06:04.647Z,2.19
2018-03-26T04:07:04.584Z,2.09
2018-03-26T04:08:04.456Z,2.08
2018-03-26T04:09:04.360Z,2.08
2018-03-26T04:10:04.264Z,2.07
2018-03-26T04:11:04.165Z,1.98
2018-03-26T04:12:04.106Z,1.93
2018-03-26T04:13:03.974Z,1.90
2018-03-26T04:14:03.876Z,2.02
2018-03-26T04:15:03.782Z,1.88
2018-03-26T04:16:03.688Z,1.82
2018-03-26T04:17:03.628Z,1.81
2018-03-26T04:18:03.492Z,1.85
2018-03-26T04:19:03.398Z,1.85
2018-03-26T04:20:03.300Z,1.88
2018-03-26T04:21:03.207Z,1.81
2018-03-26T04:22:03.141Z,1.89
2018-03-26T04:23:03.018Z,1.95
2018-03-26T04:24:02.917Z,2.01
2018-03-26T04:25:02.823Z,1.95
2018-03-26T04:26:02.724Z,1.93
2018-03-26T04:27:02.661Z,2.01
2018-03-26T04:28:02.534Z,1.93
2018-03-26T04:29:02.437Z,2.00
2018-03-26T04:30:02.349Z,1.98
2018-03-26T04:31:02.246Z,2.05
2018-03-26T04:32:02.208Z,2.04
2018-03-26T04:33:02.053Z,1.95
2018-03-26T04:34:01.962Z,1.95
2018-03-26T04:35:01.861Z,2.07
2018-03-26T04:36:01.764Z,2.07
2018-03-26T04:37:01.703Z,2.11
2018-03-26T04:38:01.574Z,2.08
2018-03-26T04:39:01.477Z,1.98
2018-03-26T04:40:01.383Z,2.08
2018-03-26T04:41:01.288Z,2.11
2018-03-26T04:42:01.220Z,2.00
2018-03-26T04:43:01.096Z,2.12
2018-03-26T04:44:00.996Z,2.05
2018-03-26T04:45:00.905Z,2.11
2018-03-26T04:46:00.806Z,2.12
2018-03-26T04:47:00.740Z,2.15
2018-03-26T04:48:00.612Z,2.14
2018-03-26T04:49:00.524Z,2.07
2018-03-26T04:50:00.424Z,2.11
2018-03-26T04:51:00.325Z,2.02
2018-03-26T04:52:00.232Z,2.08
2018-03-26T04:53:00.169Z,2.09
2018-03-26T04:54:00.034Z,2.04
2018-03-26T04:54:59.939Z,2.11
2018-03-26T04:55:59.842Z,2.02
2018-03-26T04:56:59.842Z,2.04
2018-03-26T04:57:59.687Z,1.93
2018-03-26T04:58:59.575Z,1.92
2018-03-26T04:59:59.460Z,1.98
2018-03-26T05:00:59.365Z,1.93
2018-03-26T05:01:59.272Z,2.00
2018-03-26T05:02:59.205Z,1.93
2018-03-26T05:03:59.173Z,1.92
2018-03-26T05:04:58.984Z,2.05
2018-03-26T05:05:58.882Z,1.98
2018-03-26T05:06:58.790Z,1.92
2018-03-26T05:07:58.729Z,2.04
2018-03-26T05:08:58.641Z,1.95
2018-03-26T05:09:58.500Z,1.98
2018-03-26T05:10:58.500Z,2.05
2018-03-26T05:11:58.309Z,2.01
2018-03-26T05:12:58.244Z,2.00
2018-03-26T05:13:58.121Z,2.07
2018-03-26T05:14:58.021Z,2.04
2018-03-26T05:15:57.924Z,2.02
2018-03-26T05:16:57.833Z,2.11
2018-03-26T05:17:57.856Z,2.11
2018-03-26T05:18:57.638Z,2.08
2018-03-26T05:19:57.540Z,1.98
2018-03-26T05:20:57.445Z,1.95
2018-03-26T05:21:57.348Z,1.95
2018-03-26T05:22:57.284Z,2.00
2018-03-26T05:23:57.154Z,1.98
2018-03-26T05:24:57.148Z,1.98
2018-03-26T05:25:56.962Z,1.98
2018-03-26T05:26:56.868Z,2.02
2018-03-26T05:27:56.807Z,1.98
2018-03-26T05:28:56.675Z,2.11
2018-03-26T05:29:56.584Z,2.08
2018-03-26T05:30:56.486Z,2.05
2018-03-26T05:31:56.483Z,2.02
2018-03-26T05:32:56.330Z,2.02
2018-03-26T05:33:56.196Z,2.04
2018-03-26T05:34:56.101Z,2.02
2018-03-26T05:35:56.003Z,2.07
2018-03-26T05:36:55.911Z,2.01
2018-03-26T05:37:55.845Z,2.02
2018-03-26T05:38:55.817Z,2.09
2018-03-26T05:39:55.619Z,2.04
2018-03-26T05:40:55.523Z,2.02
2018-03-26T05:41:55.428Z,2.05
2018-03-26T05:42:55.368Z,2.08
2018-03-26T05:43:55.238Z,2.09
2018-03-26T05:44:55.142Z,1.95
2018-03-26T05:45:55.133Z,2.11
2018-03-26T05:46:54.953Z,2.08
2018-03-26T05:47:54.889Z,2.08
2018-03-26T05:48:54.757Z,2.02
2018-03-26T05:49:54.693Z,2.01
2018-03-26T05:50:54.563Z,2.07
2018-03-26T05:51:54.472Z,2.15
2018-03-26T05:52:54.498Z,2.11
2018-03-26T05:53:54.277Z,2.11
2018-03-26T05:54:54.184Z,2.09
2018-03-26T05:55:54.089Z,2.01
2018-03-26T05:56:53.995Z,2.19
2018-03-26T05:57:53.942Z,2.05
2018-03-26T05:58:53.800Z,2.04
2018-03-26T05:59:53.802Z,2.05
2018-03-26T06:00:53.608Z,2.04
2018-03-26T06:01:53.516Z,2.02
2018-03-26T06:02:53.418Z,2.04
2018-03-26T06:03:53.357Z,2.05
2018-03-26T06:04:53.223Z,2.05
2018-03-26T06:05:53.129Z,2.11
2018-03-26T06:06:53.032Z,2.11
2018-03-26T06:07:52.941Z,2.07
2018-03-26T06:08:52.878Z,2.02
2018-03-26T06:09:52.747Z,2.12
2018-03-26T06:10:52.654Z,2.14
2018-03-26T06:11:52.593Z,2.09
2018-03-26T06:12:52.463Z,2.15
2018-03-26T06:13:52.484Z,2.08
2018-03-26T06:14:52.268Z,2.11
2018-03-26T06:15:52.173Z,2.20
2018-03-26T06:16:52.074Z,2.29
2018-03-26T06:17:51.978Z,2.38
2018-03-26T06:18:51.915Z,2.41
2018-03-26T06:19:51.908Z,2.29
2018-03-26T06:20:51.692Z,2.40
2018-03-26T06:21:51.597Z,2.38
2018-03-26T06:22:51.502Z,2.45
2018-03-26T06:23:51.438Z,2.47
2018-03-26T06:24:51.325Z,2.58
2018-03-26T06:25:51.215Z,2.56
2018-03-26T06:26:51.118Z,2.63
2018-03-26T06:27:51.021Z,2.68
2018-03-26T06:28:50.960Z,2.79
2018-03-26T06:29:50.830Z,2.76
2018-03-26T06:30:50.737Z,2.87
2018-03-26T06:31:50.641Z,2.74
2018-03-26T06:32:50.546Z,2.81
2018-03-26T06:33:50.483Z,2.87
2018-03-26T06:34:50.358Z,2.97
2018-03-26T06:35:50.261Z,3.08
2018-03-26T06:36:50.162Z,3.05
2018-03-26T06:37:50.068Z,3.16
2018-03-26T06:38:50.004Z,3.17
2018-03-26T06:39:49.876Z,3.25
2018-03-26T06:40:49.782Z,3.35
2018-03-26T06:41:49.688Z,3.39
2018-03-26T06:42:49.591Z,3.50
2018-03-26T06:43:49.531Z,3.62
2018-03-26T06:44:49.402Z,3.63
2018-03-26T06:45:49.307Z,3.72
2018-03-26T06:46:49.225Z,3.72
2018-03-26T06:47:49.114Z,3.95
2018-03-26T06:48:49.061Z,3.92
2018-03-26T06:49:48.964Z,3.90
2018-03-26T06:50:48.832Z,3.99
2018-03-26T06:51:48.736Z,3.96
2018-03-26T06:52:48.644Z,4.04
2018-03-26T06:53:48.582Z,4.07
2018-03-26T06:54:48.452Z,4.18
2018-03-26T06:55:48.361Z,4.25
2018-03-26T06:56:48.293Z,4.28
2018-03-26T06:57:48.174Z,4.36
2018-03-26T06:58:48.108Z,4.49
2018-03-26T06:59:47.982Z,4.53
2018-03-26T07:00:47.889Z,4.62
2018-03-26T07:01:47.791Z,4.59
2018-03-26T07:02:47.699Z,4.59
2018-03-26T07:03:47.641Z,4.62
2018-03-26T07:04:47.510Z,4.61
2018-03-26T07:05:47.415Z,4.71
2018-03-26T07:06:47.339Z,4.84
2018-03-26T07:07:47.306Z,4.96
2018-03-26T07:08:47.134Z,4.97
2018-03-26T07:09:47.076Z,4.94
2018-03-26T07:10:46.946Z,4.99
2018-03-26T07:11:46.851Z,5.12
2018-03-26T07:12:46.759Z,5.15
2018-03-26T07:13:46.668Z,5.15
2018-03-26T07:14:46.605Z,5.24
2018-03-26T07:15:46.512Z,5.33
2018-03-26T07:16:46.392Z,5.32
2018-03-26T07:17:46.291Z,5.45
2018-03-26T07:18:46.200Z,5.42
2018-03-26T07:19:46.141Z,5.45
2018-03-26T07:20:46.015Z,5.41
2018-03-26T07:21:45.918Z,5.40
2018-03-26T07:22:45.918Z,5.40
2018-03-26T07:23:45.747Z,5.38
2018-03-26T07:24:45.676Z,5.47
2018-03-26T07:25:45.546Z,5.66
2018-03-26T07:26:45.457Z,5.90
2018-03-26T07:27:45.362Z,6.20
2018-03-26T07:28:45.270Z,6.42
2018-03-26T07:29:45.211Z,6.46
2018-03-26T07:32:16.524Z,6.50
2018-03-26T07:33:16.695Z,6.68
2018-03-26T07:34:16.341Z,6.68
2018-03-26T07:35:16.220Z,6.72
2018-03-26T07:36:16.128Z,6.78
2018-03-26T07:37:16.033Z,6.87
2018-03-26T07:38:15.943Z,7.05
2018-03-26T07:39:15.884Z,7.07
2018-03-26T07:40:15.761Z,7.05
2018-03-26T07:41:15.694Z,7.30
2018-03-26T07:42:15.579Z,7.36
2018-03-26T07:43:15.484Z,7.37
2018-03-26T07:44:15.398Z,7.33
2018-03-26T07:45:15.335Z,7.36
2018-03-26T07:46:15.217Z,7.50
2018-03-26T07:47:15.124Z,7.47
2018-03-26T07:48:15.031Z,7.24
2018-03-26T07:49:14.944Z,7.30
2018-03-26T07:50:14.881Z,7.16
2018-03-26T07:51:14.757Z,7.08
2018-03-26T07:52:14.692Z,7.37
2018-03-26T07:53:14.578Z,7.47
2018-03-26T07:54:14.489Z,7.58
2018-03-26T07:55:14.426Z,7.77
2018-03-26T07:56:14.310Z,7.82
2018-03-26T07:57:14.212Z,7.69
2018-03-26T07:58:14.125Z,7.74
2018-03-26T07:59:14.034Z,7.91
2018-03-26T08:00:13.974Z,7.85
2018-03-26T08:01:13.852Z,7.99
2018-03-26T08:02:13.759Z,7.92
2018-03-26T08:03:13.671Z,8.03
2018-03-26T08:04:13.583Z,8.21
2018-03-26T08:05:13.527Z,8.09
2018-03-26T08:06:13.400Z,8.20
2018-03-26T08:07:13.406Z,8.34
2018-03-26T08:08:13.222Z,8.22
2018-03-26T08:09:13.132Z,8.47
2018-03-26T08:10:13.073Z,8.47
2018-03-26T08:11:12.950Z,8.36
2018-03-26T08:12:12.861Z,8.47
2018-03-26T08:13:12.771Z,8.39
2018-03-26T08:14:12.681Z,8.47
2018-03-26T08:15:12.623Z,8.50
2018-03-26T08:16:12.505Z,8.46
2018-03-26T08:17:12.495Z,8.42
2018-03-26T08:18:12.322Z,8.28
2018-03-26T08:19:12.233Z,8.24
2018-03-26T08:20:12.177Z,8.25
2018-03-26T08:21:12.057Z,8.21
2018-03-26T08:22:11.965Z,8.17
2018-03-26T08:23:11.892Z,7.96
2018-03-26T08:24:11.786Z,7.99
2018-03-26T08:25:11.731Z,8.00
2018-03-26T08:26:11.607Z,7.89
2018-03-26T08:28:42.972Z,7.82
2018-03-26T08:29:42.842Z,7.84
2018-03-26T08:30:42.785Z,8.03
2018-03-26T08:31:42.663Z,8.31
2018-03-26T08:32:42.574Z,8.27
2018-03-26T08:33:42.781Z,8.50
2018-03-26T08:34:42.404Z,8.64
2018-03-26T08:35:42.338Z,8.63
2018-03-26T08:36:42.214Z,8.52
2018-03-26T08:37:42.122Z,8.54
2018-03-26T08:38:42.040Z,8.46
2018-03-26T08:39:41.945Z,8.64
2018-03-26T08:40:41.983Z,8.91
2018-03-26T08:41:41.768Z,9.00
2018-03-26T08:42:41.679Z,9.00
2018-03-26T08:43:41.594Z,8.88
2018-03-26T08:44:41.498Z,8.68
2018-03-26T08:45:41.445Z,8.58
2018-03-26T08:46:41.320Z,8.49
2018-03-26T08:47:41.325Z,8.43
2018-03-26T08:48:41.143Z,8.22
2018-03-26T08:49:41.080Z,8.12
2018-03-26T08:50:40.994Z,8.06
2018-03-26T08:51:40.872Z,7.91
2018-03-26T08:52:40.786Z,7.82
2018-03-26T08:53:40.714Z,7.52
2018-03-26T08:54:40.697Z,7.34
2018-03-26T08:58:43.357Z,7.54
2018-03-26T08:59:43.234Z,7.79
2018-03-26T09:00:43.272Z,7.92
2018-03-26T09:01:43.055Z,8.22
2018-03-26T09:02:42.961Z,8.42
2018-03-26T09:05:14.344Z,8.82
2018-03-26T09:06:14.486Z,8.70
2018-03-26T09:07:14.112Z,8.64
2018-03-26T09:08:14.020Z,8.58
2018-03-26T09:09:13.930Z,8.78
2018-03-26T09:10:13.841Z,8.85
2018-03-26T09:11:13.787Z,8.96
2018-03-26T09:12:13.660Z,9.08
2018-03-26T09:13:13.576Z,9.12
2018-03-26T09:14:13.483Z,8.97
2018-03-26T09:15:13.395Z,9.13
2018-03-26T09:16:13.336Z,8.94
2018-03-26T09:17:13.216Z,8.96
2018-03-26T09:18:13.126Z,8.86
2018-03-26T09:19:13.036Z,8.96
2018-03-26T09:20:12.949Z,8.93
2018-03-26T09:21:12.892Z,8.93
2018-03-26T09:22:12.771Z,8.94
2018-03-26T09:23:12.678Z,8.82
2018-03-26T09:24:12.590Z,8.82
2018-03-26T09:25:12.502Z,8.61
2018-03-26T09:26:12.451Z,8.64
2018-03-26T09:27:12.324Z,8.54
2018-03-26T09:28:12.235Z,8.60
2018-03-26T09:29:12.148Z,8.70
2018-03-26T09:30:12.054Z,8.61
2018-03-26T09:31:11.999Z,8.58
2018-03-26T09:32:11.876Z,8.80
2018-03-26T09:33:11.789Z,8.79
2018-03-26T09:34:11.698Z,8.82
2018-03-26T09:35:11.611Z,9.10
2018-03-26T09:36:11.554Z,9.03
2018-03-26T09:37:11.431Z,9.16
2018-03-26T09:38:11.342Z,9.00
2018-03-26T09:39:11.254Z,9.00
2018-03-26T09:40:11.180Z,9.03
2018-03-26T09:41:11.209Z,8.85
2018-03-26T09:42:10.984Z,8.98
2018-03-26T09:43:10.899Z,8.79
2018-03-26T09:44:10.807Z,8.83
2018-03-26T09:45:10.719Z,9.00
2018-03-26T09:46:10.665Z,8.96
2018-03-26T09:47:10.542Z,8.86
2018-03-26T09:48:10.552Z,8.78
2018-03-26T09:49:10.366Z,8.63
2018-03-26T09:50:10.273Z,8.54
2018-03-26T09:51:10.218Z,8.63
2018-03-26T09:52:10.096Z,8.57
2018-03-26T09:53:10.006Z,8.43
2018-03-26T09:54:09.924Z,8.36
2018-03-26T09:55:09.920Z,8.34
2018-03-26T09:56:09.768Z,8.18
2018-03-26T09:57:09.649Z,8.21
2018-03-26T09:58:09.567Z,8.10
2018-03-26T09:59:09.506Z,8.09
2018-03-26T10:00:09.382Z,8.13
2018-03-26T10:01:09.290Z,7.96
2018-03-26T10:02:09.325Z,7.96
2018-03-26T10:03:09.113Z,7.84
2018-03-26T10:04:09.022Z,7.74
2018-03-26T10:05:08.932Z,7.67
2018-03-26T10:06:08.843Z,7.70
2018-03-26T10:07:08.790Z,7.67
2018-03-26T10:08:08.663Z,7.57
2018-03-26T10:09:08.667Z,7.63
2018-03-26T10:10:08.480Z,7.62
2018-03-26T10:11:08.397Z,7.67
2018-03-26T10:12:08.338Z,7.66
2018-03-26T10:13:08.210Z,7.74
2018-03-26T10:14:08.148Z,7.70
2018-03-26T10:15:08.027Z,7.70
2018-03-26T10:16:08.037Z,7.67
2018-03-26T10:17:07.881Z,7.69
2018-03-26T10:18:07.759Z,7.48
2018-03-26T10:19:07.670Z,7.39
2018-03-26T10:20:07.578Z,7.34
2018-03-26T10:21:07.486Z,7.44
2018-03-26T10:22:07.431Z,7.42
2018-03-26T10:23:07.455Z,7.41
2018-03-26T10:24:07.214Z,7.34
2018-03-26T10:25:07.125Z,7.42
2018-03-26T10:26:07.035Z,7.51
2018-03-26T10:27:06.975Z,7.51
2018-03-26T10:28:06.852Z,7.33
2018-03-26T10:29:06.761Z,7.29
2018-03-26T10:30:06.764Z,7.26
2018-03-26T10:31:06.577Z,7.33
2018-03-26T10:32:06.519Z,7.41
2018-03-26T10:33:06.404Z,7.45
2018-03-26T10:34:06.310Z,7.42
2018-03-26T10:35:06.212Z,7.55
2018-03-26T10:36:06.122Z,7.55
2018-03-26T10:37:06.159Z,7.51
2018-03-26T10:38:05.939Z,7.52
2018-03-26T10:39:05.853Z,7.45
2018-03-26T10:40:05.756Z,7.50
2018-03-26T10:41:05.666Z,7.55
2018-03-26T10:42:05.604Z,7.55
2018-03-26T10:43:05.492Z,7.47
2018-03-26T10:44:05.498Z,7.23
2018-03-26T10:45:05.300Z,7.44
2018-03-26T10:46:05.209Z,7.32
2018-03-26T10:47:05.154Z,7.34
2018-03-26T10:48:05.026Z,7.39
2018-03-26T10:49:04.935Z,7.36
2018-03-26T10:50:04.846Z,7.39
2018-03-26T10:51:04.763Z,7.48
2018-03-26T10:52:04.695Z,7.50
2018-03-26T10:53:04.571Z,7.50
2018-03-26T10:54:04.478Z,7.52
2018-03-26T10:55:04.387Z,7.47
2018-03-26T10:56:04.297Z,7.60
2018-03-26T10:57:04.235Z,7.54
2018-03-26T10:58:04.208Z,7.47
2018-03-26T10:59:04.022Z,7.45
2018-03-26T11:00:03.928Z,7.52
2018-03-26T11:01:03.838Z,7.36
2018-03-26T11:02:03.780Z,7.39
2018-03-26T11:03:03.658Z,7.24
2018-03-26T11:04:03.564Z,7.33
2018-03-26T11:05:03.471Z,7.33
2018-03-26T11:06:03.379Z,7.16
2018-03-26T11:07:03.291Z,7.27
2018-03-26T11:08:03.232Z,7.15
2018-03-26T11:09:03.108Z,7.11
2018-03-26T11:10:03.017Z,7.05
2018-03-26T11:11:02.942Z,6.90
2018-03-26T11:12:02.835Z,6.87
2018-03-26T11:13:02.774Z,6.90
2018-03-26T11:14:02.649Z,6.83
2018-03-26T11:15:02.561Z,7.00
2018-03-26T11:16:02.470Z,6.99
2018-03-26T11:17:02.374Z,7.01
2018-03-26T11:18:02.317Z,7.19
2018-03-26T11:22:05.027Z,7.48
2018-03-26T11:23:04.935Z,7.42
2018-03-26T11:24:04.816Z,7.36
2018-03-26T11:25:04.722Z,7.34
2018-03-26T11:26:04.630Z,7.18
2018-03-26T11:27:04.539Z,7.30
2018-03-26T11:28:04.502Z,7.30
2018-03-26T11:29:04.353Z,7.23
2018-03-26T11:30:04.263Z,7.18
2018-03-26T11:31:04.169Z,7.18
2018-03-26T11:32:04.077Z,7.21
2018-03-26T11:33:04.018Z,7.07
2018-03-26T11:34:03.894Z,7.05
2018-03-26T11:35:03.800Z,7.07
2018-03-26T11:36:03.712Z,6.97
2018-03-26T11:37:03.616Z,6.89
2018-03-26T11:38:03.559Z,6.91
2018-03-26T11:39:03.438Z,6.90
2018-03-26T11:40:03.343Z,6.90
2018-03-26T11:41:03.251Z,6.93
2018-03-26T11:42:03.161Z,6.87
2018-03-26T11:43:03.102Z,6.91
2018-03-26T11:44:02.973Z,6.78
2018-03-26T11:45:02.882Z,6.87
2018-03-26T11:46:02.792Z,6.78
2018-03-26T11:47:02.700Z,6.69
2018-03-26T11:48:02.640Z,6.73
2018-03-26T11:49:02.514Z,6.71
2018-03-26T11:50:02.421Z,6.75
2018-03-26T11:51:02.329Z,6.87
2018-03-26T11:52:02.237Z,6.79
2018-03-26T11:53:02.177Z,6.89
2018-03-26T11:54:02.052Z,6.78
2018-03-26T11:55:01.963Z,6.87
2018-03-26T11:56:01.870Z,6.87
2018-03-26T11:57:02.087Z,6.90
2018-03-26T11:58:01.715Z,6.89
2018-03-26T11:59:01.589Z,6.96
2018-03-26T12:00:01.497Z,6.91
2018-03-26T12:01:01.407Z,6.99
2018-03-26T12:02:01.314Z,6.94
2018-03-26T12:03:01.255Z,6.97
2018-03-26T12:04:01.133Z,7.04
2018-03-26T12:05:01.038Z,6.91
2018-03-26T12:06:00.948Z,7.08
2018-03-26T12:07:00.853Z,7.11
2018-03-26T12:08:00.801Z,7.08
2018-03-26T12:09:00.666Z,7.08
2018-03-26T12:10:00.579Z,7.11
2018-03-26T12:11:00.485Z,7.05
2018-03-26T12:12:00.393Z,7.07
2018-03-26T12:13:00.332Z,7.04
2018-03-26T12:14:00.207Z,6.94
2018-03-26T12:15:00.125Z,7.07
2018-03-26T12:16:00.028Z,7.04
2018-03-26T12:16:59.935Z,7.05
2018-03-26T12:17:59.846Z,7.11
2018-03-26T12:18:59.779Z,7.11
2018-03-26T12:19:59.655Z,7.00
2018-03-26T12:20:59.564Z,6.93
2018-03-26T12:21:59.468Z,6.93
2018-03-26T12:22:59.384Z,6.86
2018-03-26T12:23:59.321Z,6.87
2018-03-26T12:24:59.229Z,6.76
2018-03-26T12:25:59.100Z,6.79
2018-03-26T12:26:59.008Z,6.75
2018-03-26T12:27:58.916Z,6.76
2018-03-26T12:28:58.858Z,6.76
2018-03-26T12:29:58.732Z,6.72
2018-03-26T12:30:58.642Z,6.75
2018-03-26T12:31:58.552Z,6.72
2018-03-26T12:32:58.456Z,6.72
2018-03-26T12:33:58.394Z,6.72
2018-03-26T12:34:58.273Z,6.69
2018-03-26T12:35:58.179Z,6.57
2018-03-26T12:36:58.085Z,6.72
2018-03-26T12:37:58.083Z,6.69
2018-03-26T12:38:57.905Z,6.65
2018-03-26T12:39:57.841Z,6.60
2018-03-26T12:40:57.721Z,6.61
2018-03-26T12:41:57.625Z,6.61
2018-03-26T12:42:57.529Z,6.71
2018-03-26T12:43:57.441Z,6.63
2018-03-26T12:44:57.470Z,6.72
2018-03-26T12:45:57.255Z,6.72
2018-03-26T12:46:57.166Z,6.72
2018-03-26T12:47:57.072Z,6.76
2018-03-26T12:48:56.977Z,6.69
2018-03-26T12:49:56.914Z,6.73
2018-03-26T12:50:56.794Z,6.81
2018-03-26T12:51:56.794Z,6.73
2018-03-26T12:52:56.609Z,6.73
2018-03-26T12:53:56.517Z,6.72
2018-03-26T12:54:56.454Z,6.75
2018-03-26T12:55:56.331Z,6.72
2018-03-26T12:56:56.236Z,6.69
2018-03-26T12:57:56.150Z,6.75
2018-03-26T12:58:56.167Z,6.69
2018-03-26T12:59:55.993Z,6.63
2018-03-26T13:00:55.871Z,6.68
2018-03-26T13:01:55.776Z,6.64
2018-03-26T13:02:55.685Z,6.54
2018-03-26T13:03:55.595Z,6.65
2018-03-26T13:04:55.530Z,6.55
2018-03-26T13:05:55.506Z,6.53
2018-03-26T13:06:55.315Z,6.63
2018-03-26T13:07:55.225Z,6.57
2018-03-26T13:08:55.134Z,6.60
2018-03-26T13:09:55.069Z,6.73
2018-03-26T13:10:54.943Z,6.72
2018-03-26T13:11:54.852Z,6.64
2018-03-26T13:12:54.853Z,6.69
2018-03-26T13:13:54.667Z,6.64
2018-03-26T13:14:54.605Z,6.65
2018-03-26T13:15:54.481Z,6.57
2018-03-26T13:16:54.391Z,6.58
2018-03-26T13:17:54.296Z,6.51
2018-03-26T13:18:54.206Z,6.54
2018-03-26T13:19:54.239Z,6.51
2018-03-26T13:20:54.019Z,6.60
2018-03-26T13:21:53.931Z,6.53
2018-03-26T13:22:53.839Z,6.60
2018-03-26T13:23:53.743Z,6.54
2018-03-26T13:24:53.680Z,6.55
2018-03-26T13:25:53.556Z,6.60
2018-03-26T13:26:53.555Z,6.57
2018-03-26T13:27:53.370Z,6.48